Last 24 Hours

Red Mountain

10 Minute Data | America/Los_Angeles
as of 5/7/26 1:28 PM PDT
Date & Time Temp (°F) Dew Pt (°F) RH (%) Wind Spd (mph) Wind Dir (°) Wind Gust (mph) Wind Gst Dir (°) Daily Max Temp (°F) Daily Min Temp (°F)
5/7/26 - 1320 70.2 43.4 38 13.2 W | 275 20.4 W | 277 71.1 58.5
5/7/26 - 1310 70.0 42.8 37 13.3 W | 275 18.9 W | 271 71.1 58.5
5/7/26 - 1300 69.7 41.2 36 14.0 W | 281 19.1 WNW | 284 71.1 58.5
5/7/26 - 1250 69.0 40.8 36 13.6 WNW | 285 19.6 WNW | 286 71.1 58.5
5/7/26 - 1240 69.3 41.5 36 12.9 W | 276 18.0 WNW | 282 71.1 58.5
5/7/26 - 1230 69.6 41.8 36 12.4 W | 278 18.8 WNW | 282 71.1 58.5
5/7/26 - 1220 69.7 41.9 36 11.2 WNW | 284 16.7 WNW | 282 71.1 58.5
5/7/26 - 1210 69.0 42.6 38 10.8 WNW | 292 15.8 WNW | 298 71.1 58.5
5/7/26 - 1200 68.8 42.4 38 10.4 WNW | 292 14.7 WNW | 302 71.1 58.5
5/7/26 - 1150 68.2 42.8 40 10.4 WNW | 284 15.8 WNW | 287 71.1 58.5
5/7/26 - 1140 68.4 43.3 40 9.3 WNW | 286 14.0 WNW | 288 71.1 58.5
5/7/26 - 1130 68.4 43.6 41 8.4 WNW | 289 12.8 WNW | 290 71.1 58.5
5/7/26 - 1120 67.7 42.7 40 7.9 WNW | 287 11.6 WNW | 291 71.1 58.5
5/7/26 - 1110 67.8 42.7 40 7.1 W | 280 11.4 WNW | 285 71.1 58.5
5/7/26 - 1100 67.7 44.3 43 6.8 W | 270 9.9 WSW | 252 71.1 58.5
5/7/26 - 1050 67.3 44.7 44 6.8 W | 263 9.8 W | 266 71.1 58.5
5/7/26 - 1040 68.0 44.8 43 6.7 W | 266 9.6 W | 267 71.1 58.5
5/7/26 - 1030 68.6 41.4 37 6.2 W | 273 9.9 W | 268 71.1 58.5
5/7/26 - 1020 68.5 41.4 37 4.5 W | 269 7.4 W | 271 71.1 58.5
5/7/26 - 1010 67.6 42.5 40 4.4 W | 266 7.3 WSW | 251 71.1 58.5
5/7/26 - 1000 67.6 42.3 40 4.5 W | 263 7.5 WSW | 255 71.1 58.5
5/7/26 - 0950 68.1 41.0 37 4.1 W | 264 6.4 W | 272 71.1 58.5
5/7/26 - 0940 69.3 39.3 33 2.5 WNW | 300 5.0 WNW | 289 71.1 58.5
5/7/26 - 0930 69.6 37.6 31 1.5 NNW | 332 4.0 NNW | 328 71.1 58.5
5/7/26 - 0920 70.1 35.5 28 2.9 N | 2 5.7 NNE | 31 71.1 58.5
5/7/26 - 0910 70.3 34.2 26 4.1 N | 11 6.8 NNW | 344 71.1 58.5
5/7/26 - 0900 69.4 32.6 26 4.4 N | 356 7.0 N | 1 69.8 58.5
5/7/26 - 0850 68.9 31.9 25 5.0 N | 8 7.6 NNE | 15 69.3 58.5
5/7/26 - 0840 68.9 32.5 26 5.7 N | 10 8.3 NNE | 18 69.3 58.5
5/7/26 - 0830 68.9 32.2 26 6.3 NNE | 17 8.3 NNE | 28 69.3 58.5
5/7/26 - 0820 68.7 32.2 26 5.6 NNE | 18 8.0 N | 9 69.0 58.5
5/7/26 - 0810 68.5 32.8 27 5.5 NNE | 21 7.5 NNE | 19 68.8 58.5
5/7/26 - 0800 68.3 32.2 26 6.1 NNE | 19 8.1 NNE | 15 68.4 58.5
5/7/26 - 0750 67.7 31.3 26 6.4 NNE | 20 7.8 N | 11 68.1 58.5
5/7/26 - 0740 67.3 30.9 26 7.1 N | 11 8.8 N | 5 67.6 58.5
5/7/26 - 0730 67.5 31.0 26 7.6 N | 4 8.9 N | 3 67.6 58.5
5/7/26 - 0720 67.2 30.4 25 7.6 N | 2 9.9 N | 354 67.6 58.5
5/7/26 - 0710 66.6 30.3 26 8.6 N | 2 10.0 N | 0 66.9 58.5
5/7/26 - 0700 66.6 30.3 26 8.9 N | 5 10.5 N | 5 66.9 58.5
5/7/26 - 0650 66.3 30.3 26 9.3 N | 3 11.2 N | 0 66.9 58.5
5/7/26 - 0640 66.3 30.3 26 9.4 N | 3 10.7 N | 3 66.9 58.5
5/7/26 - 0630 66.2 30.6 26 10.0 N | 1 12.0 N | 0 66.9 58.5
5/7/26 - 0620 66.2 30.4 26 10.2 N | 359 11.2 N | 0 66.9 58.5
5/7/26 - 0610 65.5 30.9 27 10.5 N | 1 12.6 N | 0 66.1 58.5
5/7/26 - 0600 65.5 31.2 28 10.2 N | 357 13.1 N | 0 66.1 58.5
5/7/26 - 0550 65.4 31.1 28 10.3 N | 352 13.0 NNW | 348 66.1 58.5
5/7/26 - 0540 65.1 31.4 28 11.5 N | 357 14.9 N | 351 65.4 58.5
5/7/26 - 0530 64.8 31.8 29 10.9 N | 356 13.8 NNW | 348 65.3 58.5
5/7/26 - 0520 63.9 32.8 31 13.0 N | 354 15.7 NNW | 346 65.0 58.5
5/7/26 - 0510 64.3 32.9 31 11.1 N | 360 15.6 NNW | 342 65.0 58.5
5/7/26 - 0500 64.6 32.5 30 11.2 N | 6 13.3 N | 353 65.0 58.5
5/7/26 - 0450 63.6 33.8 33 12.4 N | 1 14.0 N | 1 64.6 58.5
5/7/26 - 0440 62.8 34.9 35 11.4 N | 2 13.9 N | 354 64.6 58.5
5/7/26 - 0430 62.6 35.7 37 10.6 N | 3 12.3 N | 0 64.6 58.5
5/7/26 - 0420 63.5 34.4 34 11.6 N | 357 14.0 N | 351 64.6 58.5
5/7/26 - 0410 63.9 34.5 33 11.3 N | 354 12.6 NNW | 346 64.6 58.5
5/7/26 - 0400 61.9 37.1 40 10.5 N | 3 12.1 N | 354 63.3 58.5
5/7/26 - 0350 60.8 37.5 42 9.7 N | 8 11.0 N | 0 61.2 58.5
5/7/26 - 0340 60.0 37.4 43 10.0 N | 3 11.0 N | 2 60.6 58.5
5/7/26 - 0330 59.5 38.2 45 10.2 N | 6 10.7 N | 7 60.6 58.5
5/7/26 - 0320 59.3 38.5 46 9.6 N | 357 10.7 N | 8 60.6 58.5
5/7/26 - 0310 59.5 38.4 46 9.2 N | 349 9.8 N | 350 60.6 58.5
5/7/26 - 0300 59.4 38.4 46 10.0 N | 351 11.2 NNW | 348 60.6 58.5
5/7/26 - 0250 59.3 39.3 47 9.2 NNW | 339 10.3 NNW | 340 60.6 58.5
5/7/26 - 0240 59.7 39.4 47 8.6 NNW | 338 11.0 NNW | 328 60.6 58.5
5/7/26 - 0230 59.9 39.1 46 10.2 N | 352 12.1 NNW | 346 60.5 58.5
5/7/26 - 0220 59.1 40.2 49 8.5 N | 350 11.6 NNW | 334 60.5 58.5
5/7/26 - 0210 58.8 40.8 51 7.3 N | 2 9.1 N | 351 60.5 58.5
5/7/26 - 0200 58.7 41.4 52 5.7 NW | 313 6.5 WNW | 301 60.5 58.6
5/7/26 - 0150 59.3 40.6 50 5.6 WNW | 301 8.2 NW | 325 60.5 58.8
5/7/26 - 0140 59.8 39.5 47 8.6 NNW | 327 10.0 NW | 322 60.5 59.4
5/7/26 - 0130 59.7 40.1 48 7.2 NW | 314 8.1 NW | 307 60.5 59.4
5/7/26 - 0120 60.2 39.6 46 5.7 NNW | 333 7.7 NNW | 342 60.5 59.4
5/7/26 - 0110 59.6 40.4 49 6.7 NNW | 348 8.4 N | 350 59.9 59.4
5/7/26 - 0100 59.5 40.6 50 4.1 NNW | 339 5.6 NNW | 329 63.7 40.4
5/7/26 - 0050 59.6 40.5 49 4.9 NNW | 328 6.7 WNW | 299 63.7 40.4
5/7/26 - 0040 59.5 40.7 50 4.7 NW | 325 6.8 NW | 324 63.7 40.4
5/7/26 - 0030 59.6 40.6 49 6.6 NNW | 329 8.9 NNW | 339 63.7 40.4
5/7/26 - 0020 59.5 40.8 50 6.4 NNW | 332 8.6 NW | 316 63.7 40.4
5/7/26 - 0010 59.7 40.9 50 6.6 NNW | 336 8.9 NNW | 334 63.7 40.4
5/7/26 - 0000 60.0 40.4 48 6.6 NW | 322 8.0 NW | 322 63.7 40.4
5/6/26 - 2350 59.4 41.1 51 7.0 NW | 326 9.4 WNW | 303 63.7 40.4
5/6/26 - 2340 59.0 42.2 54 6.9 NNW | 342 9.1 NNW | 334 63.7 40.4
5/6/26 - 2330 58.8 42.9 56 7.1 NNW | 347 9.1 NNW | 344 63.7 40.4
5/6/26 - 2320 59.0 42.6 54 6.5 N | 351 7.2 N | 354 63.7 40.4
5/6/26 - 2310 58.7 43.2 56 6.3 N | 350 7.2 N | 0 63.7 40.4
5/6/26 - 2300 58.2 43.8 59 5.9 N | 2 7.2 N | 0 63.7 40.4
5/6/26 - 2250 57.2 45.2 64 6.1 N | 359 7.6 N | 0 63.7 40.4
5/6/26 - 2240 56.8 45.7 66 7.8 N | 4 8.8 N | 8 63.7 40.4
5/6/26 - 2230 56.4 46.4 69 7.4 NNE | 12 8.0 NNE | 23 63.7 40.4
5/6/26 - 2220 55.8 47.6 74 6.6 NNE | 22 7.8 NNE | 22 63.7 40.4
5/6/26 - 2210 56.3 47.0 71 6.5 N | 1 8.6 N | 6 63.7 40.4
5/6/26 - 2200 56.3 46.7 70 7.0 N | 2 8.0 N | 5 63.7 40.4
5/6/26 - 2150 56.2 47.2 72 10.1 N | 9 11.9 N | 4 63.7 40.4
5/6/26 - 2140 56.2 47.1 71 9.7 N | 357 11.5 N | 2 63.7 40.4
5/6/26 - 2130 55.4 48.1 76 8.4 N | 5 9.9 N | 354 63.7 40.4
5/6/26 - 2120 55.3 48.2 77 9.8 N | 10 11.0 N | 11 63.7 40.4
5/6/26 - 2110 55.3 47.9 76 9.8 N | 6 11.5 N | 6 63.7 40.4
5/6/26 - 2100 55.2 47.8 76 10.8 N | 357 11.8 N | 352 63.7 40.4
5/6/26 - 2050 55.5 47.7 75 10.7 NNW | 346 11.8 NNW | 345 63.7 40.4
5/6/26 - 2040 55.8 47.5 74 12.0 NNW | 338 14.5 NNW | 342 63.7 40.4
5/6/26 - 2030 56.3 47.2 71 13.2 NNW | 336 15.6 NNW | 339 63.7 40.4
5/6/26 - 2020 56.5 47.0 70 12.8 NNW | 332 15.3 NNW | 331 63.7 40.4
5/6/26 - 2010 56.7 46.7 69 12.7 NNW | 328 16.0 NNW | 335 63.7 40.4
5/6/26 - 2000 57.2 46.2 67 13.6 NNW | 330 15.9 NNW | 331 63.7 40.4
5/6/26 - 1950 57.2 46.4 67 13.5 NNW | 330 16.0 NNW | 336 63.7 40.4
5/6/26 - 1940 57.1 47.2 70 11.7 NW | 321 14.8 NW | 324 63.7 40.4
5/6/26 - 1930 57.7 46.9 67 12.2 NW | 322 15.7 NW | 323 63.7 40.4
5/6/26 - 1920 57.8 47.3 68 11.5 NW | 325 15.3 NW | 325 63.7 40.4
5/6/26 - 1910 57.7 48.2 71 8.3 NW | 314 13.5 NW | 323 63.7 40.4
5/6/26 - 1900 57.6 49.2 73 6.3 WNW | 292 8.8 NW | 305 63.7 40.4
5/6/26 - 1850 57.7 49.5 74 6.7 W | 263 9.9 WSW | 253 63.7 40.4
5/6/26 - 1840 58.6 49.2 71 7.5 W | 270 10.2 WSW | 258 63.7 40.4
5/6/26 - 1830 58.2 49.1 72 8.9 WSW | 249 13.3 WSW | 244 63.7 40.4
5/6/26 - 1820 58.5 49.4 72 8.8 WSW | 242 12.1 WSW | 246 63.7 40.4
5/6/26 - 1810 58.8 49.2 70 9.1 W | 260 11.9 WSW | 255 63.7 40.4
5/6/26 - 1800 59.5 49.0 68 10.5 WSW | 252 15.6 WSW | 244 63.7 40.4
5/6/26 - 1750 60.8 48.9 65 10.0 WSW | 246 14.4 WSW | 256 63.7 40.4
5/6/26 - 1740 60.5 47.7 62 12.9 WSW | 258 17.3 WSW | 245 63.7 40.4
5/6/26 - 1730 61.0 47.8 62 14.4 WSW | 255 20.5 W | 269 63.7 40.4
5/6/26 - 1720 62.5 45.8 54 12.5 WSW | 258 20.8 WSW | 251 63.7 40.4
5/6/26 - 1710 62.6 45.3 53 12.9 W | 261 20.5 W | 269 63.7 40.4
5/6/26 - 1700 62.4 45.9 55 15.9 WSW | 254 21.4 W | 262 63.7 40.4
5/6/26 - 1650 62.5 41.0 45 14.3 W | 269 21.8 W | 273 63.7 40.4
5/6/26 - 1640 62.5 41.2 46 15.9 W | 273 20.6 WNW | 283 63.7 40.4
5/6/26 - 1630 61.9 40.6 45 15.5 WNW | 290 21.0 WNW | 282 63.7 40.4
5/6/26 - 1620 62.6 40.8 45 14.1 W | 280 21.2 WNW | 284 63.7 40.4
5/6/26 - 1610 62.1 40.7 45 14.2 W | 279 22.3 WSW | 255 63.7 40.4
5/6/26 - 1600 61.8 40.5 45 13.5 W | 268 21.1 WSW | 255 63.7 40.4
5/6/26 - 1550 62.2 40.8 45 13.7 W | 267 22.9 WNW | 287 63.7 40.4
5/6/26 - 1540 61.4 40.4 46 14.2 W | 264 20.6 W | 261 63.7 40.4
5/6/26 - 1530 61.9 40.8 46 11.1 WSW | 254 21.6 W | 276 63.7 40.4
5/6/26 - 1520 61.3 40.4 46 11.5 W | 277 16.3 W | 262 62.5 40.4
5/6/26 - 1510 61.5 40.6 46 10.2 W | 266 16.8 W | 264 62.5 40.4
5/6/26 - 1500 60.6 40.3 47 10.7 W | 269 17.8 W | 272 61.9 40.4
5/6/26 - 1450 61.0 40.7 47 10.5 W | 276 17.7 W | 267 61.9 40.4
5/6/26 - 1440 60.6 40.6 48 11.3 W | 269 20.1 W | 270 61.6 40.4
5/6/26 - 1430 60.2 40.9 49 8.8 WNW | 282 15.3 WNW | 299 61.3 40.4
5/6/26 - 1420 59.6 41.0 50 9.1 W | 274 16.4 W | 281 60.9 40.4
5/6/26 - 1410 58.8 40.8 51 9.3 W | 271 15.5 WNW | 289 59.6 40.4
5/6/26 - 1400 59.1 41.2 51 10.0 W | 263 17.9 W | 276 59.6 40.4
5/6/26 - 1350 58.3 41.0 52 9.9 W | 270 16.2 W | 280 58.9 40.4
5/6/26 - 1340 58.3 41.4 53 9.6 W | 271 17.4 WSW | 254 58.9 40.4
5/6/26 - 1330 57.8 41.5 54 10.2 W | 269 16.4 W | 271 58.4 40.4
5/6/26 - 1320 57.3 41.2 55 9.2 W | 262 14.9 W | 267 57.9 40.4
Max 70.3 49.5 77 15.9 - 22.9 - 71.1 59.4
Avg 62.3 40.7 47 9.2 - 12.6 - - -
Min 55.2 30.3 25 1.5 - 4.0 - 57.9 40.4